sensor_id;sensor_type;location;lat;lon;timestamp;P1;durP1;ratioP1;P2;durP2;ratioP2
67352;SDS011;54238;52.278;21.056;2023-04-29T00:01:50;21.70;;;13.00;;
67352;SDS011;54238;52.278;21.056;2023-04-29T00:04:27;22.80;;;12.80;;
67352;SDS011;54238;52.278;21.056;2023-04-29T00:06:56;22.70;;;11.70;;
67352;SDS011;54238;52.278;21.056;2023-04-29T00:09:28;26.30;;;15.50;;
67352;SDS011;54238;52.278;21.056;2023-04-29T00:12:00;22.30;;;12.60;;
67352;SDS011;54238;52.278;21.056;2023-04-29T00:14:28;19.50;;;11.70;;
67352;SDS011;54238;52.278;21.056;2023-04-29T00:16:55;18.70;;;12.00;;
67352;SDS011;54238;52.278;21.056;2023-04-29T00:19:25;21.20;;;11.20;;
67352;SDS011;54238;52.278;21.056;2023-04-29T00:21:53;19.30;;;11.10;;
67352;SDS011;54238;52.278;21.056;2023-04-29T00:24:23;21.30;;;12.70;;
67352;SDS011;54238;52.278;21.056;2023-04-29T00:26:50;22.90;;;13.20;;
67352;SDS011;54238;52.278;21.056;2023-04-29T00:29:19;26.20;;;13.00;;
67352;SDS011;54238;52.278;21.056;2023-04-29T00:31:47;16.80;;;11.10;;
67352;SDS011;54238;52.278;21.056;2023-04-29T00:36:56;19.70;;;12.50;;
67352;SDS011;54238;52.278;21.056;2023-04-29T00:42:26;16.20;;;10.90;;
67352;SDS011;54238;52.278;21.056;2023-04-29T00:44:57;57.70;;;36.10;;
67352;SDS011;54238;52.278;21.056;2023-04-29T00:47:24;21.50;;;12.50;;
67352;SDS011;54238;52.278;21.056;2023-04-29T00:49:54;23.60;;;12.80;;
67352;SDS011;54238;52.278;21.056;2023-04-29T00:52:24;21.40;;;10.70;;
67352;SDS011;54238;52.278;21.056;2023-04-29T00:57:58;18.10;;;11.10;;
67352;SDS011;54238;52.278;21.056;2023-04-29T01:00:29;17.20;;;11.00;;
67352;SDS011;54238;52.278;21.056;2023-04-29T01:03:00;18.20;;;11.20;;
67352;SDS011;54238;52.278;21.056;2023-04-29T01:05:28;20.60;;;11.30;;
67352;SDS011;54238;52.278;21.056;2023-04-29T01:08:27;20.90;;;11.00;;
67352;SDS011;54238;52.278;21.056;2023-04-29T01:11:07;15.70;;;9.80;;
67352;SDS011;54238;52.278;21.056;2023-04-29T01:16:51;20.50;;;10.90;;
67352;SDS011;54238;52.278;21.056;2023-04-29T01:19:36;19.00;;;11.40;;
67352;SDS011;54238;52.278;21.056;2023-04-29T01:22:11;17.50;;;11.00;;
67352;SDS011;54238;52.278;21.056;2023-04-29T01:24:43;21.20;;;11.30;;
67352;SDS011;54238;52.278;21.056;2023-04-29T01:27:32;15.60;;;9.60;;
67352;SDS011;54238;52.278;21.056;2023-04-29T01:33:35;69.30;;;41.80;;
67352;SDS011;54238;52.278;21.056;2023-04-29T01:36:29;20.00;;;12.20;;
67352;SDS011;54238;52.278;21.056;2023-04-29T01:39:44;22.90;;;12.00;;
67352;SDS011;54238;52.278;21.056;2023-04-29T01:45:24;21.10;;;10.50;;
67352;SDS011;54238;52.278;21.056;2023-04-29T01:47:58;18.80;;;11.00;;
67352;SDS011;54238;52.278;21.056;2023-04-29T01:50:26;19.10;;;10.00;;
67352;SDS011;54238;52.278;21.056;2023-04-29T01:52:56;20.40;;;11.00;;
67352;SDS011;54238;52.278;21.056;2023-04-29T01:55:26;20.70;;;11.30;;
67352;SDS011;54238;52.278;21.056;2023-04-29T01:57:55;17.90;;;9.60;;
67352;SDS011;54238;52.278;21.056;2023-04-29T02:00:24;21.30;;;11.30;;
67352;SDS011;54238;52.278;21.056;2023-04-29T02:02:54;17.60;;;9.40;;
67352;SDS011;54238;52.278;21.056;2023-04-29T02:05:21;16.90;;;10.30;;
67352;SDS011;54238;52.278;21.056;2023-04-29T02:07:50;16.50;;;10.20;;
67352;SDS011;54238;52.278;21.056;2023-04-29T02:10:22;17.40;;;10.90;;
67352;SDS011;54238;52.278;21.056;2023-04-29T02:12:52;15.10;;;10.70;;
67352;SDS011;54238;52.278;21.056;2023-04-29T02:15:22;16.70;;;10.50;;
67352;SDS011;54238;52.278;21.056;2023-04-29T02:17:56;14.50;;;9.50;;
67352;SDS011;54238;52.278;21.056;2023-04-29T02:20:23;14.90;;;9.40;;
67352;SDS011;54238;52.278;21.056;2023-04-29T02:22:52;17.60;;;9.50;;
67352;SDS011;54238;52.278;21.056;2023-04-29T02:25:20;17.20;;;10.50;;
67352;SDS011;54238;52.278;21.056;2023-04-29T02:27:47;16.20;;;9.30;;
67352;SDS011;54238;52.278;21.056;2023-04-29T02:30:14;21.60;;;11.00;;
67352;SDS011;54238;52.278;21.056;2023-04-29T02:32:46;20.80;;;10.60;;
67352;SDS011;54238;52.278;21.056;2023-04-29T02:35:16;16.90;;;9.00;;
67352;SDS011;54238;52.278;21.056;2023-04-29T02:37:47;17.60;;;10.50;;
67352;SDS011;54238;52.278;21.056;2023-04-29T02:40:19;16.10;;;8.70;;
67352;SDS011;54238;52.278;21.056;2023-04-29T02:45:25;17.40;;;9.90;;
67352;SDS011;54238;52.278;21.056;2023-04-29T02:47:57;13.60;;;8.90;;
67352;SDS011;54238;52.278;21.056;2023-04-29T02:50:27;18.70;;;8.70;;
67352;SDS011;54238;52.278;21.056;2023-04-29T02:52:56;15.40;;;9.50;;
67352;SDS011;54238;52.278;21.056;2023-04-29T02:55:23;16.80;;;9.80;;
67352;SDS011;54238;52.278;21.056;2023-04-29T02:57:52;15.90;;;9.60;;
67352;SDS011;54238;52.278;21.056;2023-04-29T03:00:22;14.80;;;9.50;;
67352;SDS011;54238;52.278;21.056;2023-04-29T03:02:51;15.90;;;9.10;;
67352;SDS011;54238;52.278;21.056;2023-04-29T03:05:25;13.20;;;8.10;;
67352;SDS011;54238;52.278;21.056;2023-04-29T03:07:53;15.20;;;9.50;;
67352;SDS011;54238;52.278;21.056;2023-04-29T03:10:20;17.80;;;9.90;;
67352;SDS011;54238;52.278;21.056;2023-04-29T03:12:48;17.20;;;10.00;;
67352;SDS011;54238;52.278;21.056;2023-04-29T03:15:15;13.60;;;8.70;;
67352;SDS011;54238;52.278;21.056;2023-04-29T03:17:42;12.30;;;8.10;;
67352;SDS011;54238;52.278;21.056;2023-04-29T03:20:14;14.70;;;8.90;;
67352;SDS011;54238;52.278;21.056;2023-04-29T03:22:44;16.30;;;8.60;;
67352;SDS011;54238;52.278;21.056;2023-04-29T03:25:15;14.70;;;8.60;;
67352;SDS011;54238;52.278;21.056;2023-04-29T03:27:49;14.90;;;9.30;;
67352;SDS011;54238;52.278;21.056;2023-04-29T03:30:19;16.90;;;9.30;;
67352;SDS011;54238;52.278;21.056;2023-04-29T03:32:47;14.40;;;8.90;;
67352;SDS011;54238;52.278;21.056;2023-04-29T03:35:15;11.40;;;7.50;;
67352;SDS011;54238;52.278;21.056;2023-04-29T03:37:44;13.90;;;8.20;;
67352;SDS011;54238;52.278;21.056;2023-04-29T03:40:12;13.10;;;8.20;;
67352;SDS011;54238;52.278;21.056;2023-04-29T03:42:42;15.40;;;7.90;;
67352;SDS011;54238;52.278;21.056;2023-04-29T03:45:10;17.20;;;8.50;;
67352;SDS011;54238;52.278;21.056;2023-04-29T03:50:13;12.00;;;6.80;;
67352;SDS011;54238;52.278;21.056;2023-04-29T03:52:40;12.60;;;8.90;;
67352;SDS011;54238;52.278;21.056;2023-04-29T03:55:10;16.60;;;8.30;;
67352;SDS011;54238;52.278;21.056;2023-04-29T03:57:41;16.00;;;8.20;;
67352;SDS011;54238;52.278;21.056;2023-04-29T04:00:11;12.00;;;7.50;;
67352;SDS011;54238;52.278;21.056;2023-04-29T04:02:46;15.00;;;8.30;;
67352;SDS011;54238;52.278;21.056;2023-04-29T04:05:13;13.60;;;7.80;;
67352;SDS011;54238;52.278;21.056;2023-04-29T04:07:50;19.00;;;8.20;;
67352;SDS011;54238;52.278;21.056;2023-04-29T04:10:22;12.70;;;8.00;;
67352;SDS011;54238;52.278;21.056;2023-04-29T04:13:00;13.40;;;8.10;;
67352;SDS011;54238;52.278;21.056;2023-04-29T04:15:32;11.90;;;7.70;;
67352;SDS011;54238;52.278;21.056;2023-04-29T04:18:06;11.90;;;7.50;;
67352;SDS011;54238;52.278;21.056;2023-04-29T04:20:39;18.80;;;8.70;;
67352;SDS011;54238;52.278;21.056;2023-04-29T04:23:13;17.90;;;8.60;;
67352;SDS011;54238;52.278;21.056;2023-04-29T04:25:47;15.60;;;7.20;;
67352;SDS011;54238;52.278;21.056;2023-04-29T04:28:23;12.20;;;6.90;;
67352;SDS011;54238;52.278;21.056;2023-04-29T04:30:50;9.20;;;6.80;;
67352;SDS011;54238;52.278;21.056;2023-04-29T04:33:24;12.30;;;7.70;;
67352;SDS011;54238;52.278;21.056;2023-04-29T04:35:53;12.30;;;7.60;;
67352;SDS011;54238;52.278;21.056;2023-04-29T04:38:25;11.60;;;6.90;;
67352;SDS011;54238;52.278;21.056;2023-04-29T04:40:57;9.80;;;6.90;;
67352;SDS011;54238;52.278;21.056;2023-04-29T04:43:24;12.40;;;7.70;;
67352;SDS011;54238;52.278;21.056;2023-04-29T04:45:56;11.80;;;6.30;;
67352;SDS011;54238;52.278;21.056;2023-04-29T04:48:28;10.30;;;7.10;;
67352;SDS011;54238;52.278;21.056;2023-04-29T04:51:12;12.50;;;6.10;;
67352;SDS011;54238;52.278;21.056;2023-04-29T04:53:41;15.80;;;7.50;;
67352;SDS011;54238;52.278;21.056;2023-04-29T04:56:16;12.50;;;6.70;;
67352;SDS011;54238;52.278;21.056;2023-04-29T04:58:45;10.10;;;6.20;;
67352;SDS011;54238;52.278;21.056;2023-04-29T05:01:15;12.30;;;6.50;;
67352;SDS011;54238;52.278;21.056;2023-04-29T05:03:46;10.30;;;5.90;;
67352;SDS011;54238;52.278;21.056;2023-04-29T05:06:15;11.70;;;7.60;;
67352;SDS011;54238;52.278;21.056;2023-04-29T05:08:43;12.50;;;7.10;;
67352;SDS011;54238;52.278;21.056;2023-04-29T05:11:20;10.10;;;6.50;;
67352;SDS011;54238;52.278;21.056;2023-04-29T05:13:52;12.30;;;7.00;;
67352;SDS011;54238;52.278;21.056;2023-04-29T05:16:19;10.30;;;6.50;;
67352;SDS011;54238;52.278;21.056;2023-04-29T05:18:46;15.30;;;7.00;;
67352;SDS011;54238;52.278;21.056;2023-04-29T05:21:18;11.70;;;6.40;;
67352;SDS011;54238;52.278;21.056;2023-04-29T05:23:47;11.30;;;6.30;;
67352;SDS011;54238;52.278;21.056;2023-04-29T05:26:14;12.40;;;6.90;;
67352;SDS011;54238;52.278;21.056;2023-04-29T05:28:46;10.00;;;6.90;;
67352;SDS011;54238;52.278;21.056;2023-04-29T05:31:15;10.70;;;6.40;;
67352;SDS011;54238;52.278;21.056;2023-04-29T05:33:47;11.00;;;6.40;;
67352;SDS011;54238;52.278;21.056;2023-04-29T05:36:16;9.60;;;6.60;;
67352;SDS011;54238;52.278;21.056;2023-04-29T05:38:48;17.00;;;6.80;;
67352;SDS011;54238;52.278;21.056;2023-04-29T05:41:16;13.80;;;6.50;;
67352;SDS011;54238;52.278;21.056;2023-04-29T05:43:45;11.00;;;6.50;;
67352;SDS011;54238;52.278;21.056;2023-04-29T05:46:15;11.20;;;6.40;;
67352;SDS011;54238;52.278;21.056;2023-04-29T05:48:46;16.40;;;7.20;;
67352;SDS011;54238;52.278;21.056;2023-04-29T05:51:17;17.80;;;7.10;;
67352;SDS011;54238;52.278;21.056;2023-04-29T05:53:44;12.60;;;6.70;;
67352;SDS011;54238;52.278;21.056;2023-04-29T05:56:11;9.50;;;5.50;;
67352;SDS011;54238;52.278;21.056;2023-04-29T05:58:40;12.60;;;6.60;;
67352;SDS011;54238;52.278;21.056;2023-04-29T06:01:09;9.80;;;6.10;;
67352;SDS011;54238;52.278;21.056;2023-04-29T06:03:36;12.20;;;6.00;;
67352;SDS011;54238;52.278;21.056;2023-04-29T06:06:07;10.70;;;6.40;;
67352;SDS011;54238;52.278;21.056;2023-04-29T06:08:40;12.40;;;5.40;;
67352;SDS011;54238;52.278;21.056;2023-04-29T06:11:09;9.10;;;5.80;;
67352;SDS011;54238;52.278;21.056;2023-04-29T06:13:41;10.70;;;5.90;;
67352;SDS011;54238;52.278;21.056;2023-04-29T06:16:15;13.10;;;6.40;;
67352;SDS011;54238;52.278;21.056;2023-04-29T06:18:44;16.30;;;5.80;;
67352;SDS011;54238;52.278;21.056;2023-04-29T06:21:16;14.60;;;5.50;;
67352;SDS011;54238;52.278;21.056;2023-04-29T06:23:48;12.30;;;5.80;;
67352;SDS011;54238;52.278;21.056;2023-04-29T06:26:17;12.30;;;5.60;;
67352;SDS011;54238;52.278;21.056;2023-04-29T06:28:48;16.10;;;5.40;;
67352;SDS011;54238;52.278;21.056;2023-04-29T06:31:19;10.20;;;6.20;;
67352;SDS011;54238;52.278;21.056;2023-04-29T06:33:48;8.50;;;5.20;;
67352;SDS011;54238;52.278;21.056;2023-04-29T06:36:20;10.20;;;5.80;;
67352;SDS011;54238;52.278;21.056;2023-04-29T06:38:50;14.40;;;5.50;;
67352;SDS011;54238;52.278;21.056;2023-04-29T06:41:20;11.50;;;5.60;;
67352;SDS011;54238;52.278;21.056;2023-04-29T06:43:48;9.20;;;5.20;;
67352;SDS011;54238;52.278;21.056;2023-04-29T06:46:17;7.50;;;5.00;;
67352;SDS011;54238;52.278;21.056;2023-04-29T06:48:47;10.50;;;4.70;;
67352;SDS011;54238;52.278;21.056;2023-04-29T06:51:14;12.40;;;4.90;;
67352;SDS011;54238;52.278;21.056;2023-04-29T06:53:43;10.70;;;5.10;;
67352;SDS011;54238;52.278;21.056;2023-04-29T06:56:12;7.90;;;5.20;;
67352;SDS011;54238;52.278;21.056;2023-04-29T06:58:41;9.50;;;5.00;;
67352;SDS011;54238;52.278;21.056;2023-04-29T07:01:13;9.70;;;4.90;;
67352;SDS011;54238;52.278;21.056;2023-04-29T07:03:43;11.30;;;4.80;;
67352;SDS011;54238;52.278;21.056;2023-04-29T07:06:11;10.30;;;4.60;;
67352;SDS011;54238;52.278;21.056;2023-04-29T07:08:43;8.20;;;5.00;;
67352;SDS011;54238;52.278;21.056;2023-04-29T07:11:15;9.20;;;4.30;;
67352;SDS011;54238;52.278;21.056;2023-04-29T07:13:44;8.70;;;4.30;;
67352;SDS011;54238;52.278;21.056;2023-04-29T07:16:15;11.90;;;4.30;;
67352;SDS011;54238;52.278;21.056;2023-04-29T07:18:49;11.20;;;4.80;;
67352;SDS011;54238;52.278;21.056;2023-04-29T07:21:19;7.80;;;4.20;;
67352;SDS011;54238;52.278;21.056;2023-04-29T07:23:48;8.50;;;4.10;;
67352;SDS011;54238;52.278;21.056;2023-04-29T07:26:22;8.20;;;4.00;;
67352;SDS011;54238;52.278;21.056;2023-04-29T07:28:52;9.70;;;4.10;;
67352;SDS011;54238;52.278;21.056;2023-04-29T07:31:20;10.20;;;4.30;;
67352;SDS011;54238;52.278;21.056;2023-04-29T07:33:51;8.40;;;4.00;;
67352;SDS011;54238;52.278;21.056;2023-04-29T07:36:28;6.70;;;4.00;;
67352;SDS011;54238;52.278;21.056;2023-04-29T07:38:59;12.20;;;4.70;;
67352;SDS011;54238;52.278;21.056;2023-04-29T07:41:29;13.50;;;4.50;;
67352;SDS011;54238;52.278;21.056;2023-04-29T07:43:59;9.40;;;4.80;;
67352;SDS011;54238;52.278;21.056;2023-04-29T07:46:31;6.90;;;4.40;;
67352;SDS011;54238;52.278;21.056;2023-04-29T07:49:06;6.90;;;3.50;;
67352;SDS011;54238;52.278;21.056;2023-04-29T07:51:36;9.50;;;3.50;;
67352;SDS011;54238;52.278;21.056;2023-04-29T07:54:12;10.80;;;4.40;;
67352;SDS011;54238;52.278;21.056;2023-04-29T07:56:42;7.30;;;3.80;;
67352;SDS011;54238;52.278;21.056;2023-04-29T07:59:11;9.00;;;3.90;;
67352;SDS011;54238;52.278;21.056;2023-04-29T08:01:41;7.70;;;3.40;;
67352;SDS011;54238;52.278;21.056;2023-04-29T08:04:12;10.50;;;4.10;;
67352;SDS011;54238;52.278;21.056;2023-04-29T08:06:42;13.70;;;3.60;;
67352;SDS011;54238;52.278;21.056;2023-04-29T08:09:11;10.50;;;4.20;;
67352;SDS011;54238;52.278;21.056;2023-04-29T08:11:41;11.00;;;4.00;;
67352;SDS011;54238;52.278;21.056;2023-04-29T08:14:13;8.80;;;3.90;;
67352;SDS011;54238;52.278;21.056;2023-04-29T08:16:43;7.20;;;4.00;;
67352;SDS011;54238;52.278;21.056;2023-04-29T08:19:14;8.00;;;4.00;;
67352;SDS011;54238;52.278;21.056;2023-04-29T08:21:46;9.30;;;4.10;;
67352;SDS011;54238;52.278;21.056;2023-04-29T08:24:15;9.20;;;4.00;;
67352;SDS011;54238;52.278;21.056;2023-04-29T08:26:42;12.10;;;4.10;;
67352;SDS011;54238;52.278;21.056;2023-04-29T08:29:15;9.20;;;3.50;;
67352;SDS011;54238;52.278;21.056;2023-04-29T08:31:44;6.40;;;4.00;;
67352;SDS011;54238;52.278;21.056;2023-04-29T08:34:15;10.30;;;4.10;;
67352;SDS011;54238;52.278;21.056;2023-04-29T08:36:48;10.20;;;3.60;;
67352;SDS011;54238;52.278;21.056;2023-04-29T08:39:20;7.90;;;3.20;;
67352;SDS011;54238;52.278;21.056;2023-04-29T08:41:58;10.20;;;4.20;;
67352;SDS011;54238;52.278;21.056;2023-04-29T08:44:30;7.80;;;4.20;;
67352;SDS011;54238;52.278;21.056;2023-04-29T08:47:04;10.30;;;4.00;;
67352;SDS011;54238;52.278;21.056;2023-04-29T08:49:42;6.90;;;3.60;;
67352;SDS011;54238;52.278;21.056;2023-04-29T08:52:12;7.30;;;3.80;;
67352;SDS011;54238;52.278;21.056;2023-04-29T08:54:41;7.30;;;3.90;;
67352;SDS011;54238;52.278;21.056;2023-04-29T08:57:09;6.80;;;3.50;;
67352;SDS011;54238;52.278;21.056;2023-04-29T08:59:42;13.00;;;3.90;;
67352;SDS011;54238;52.278;21.056;2023-04-29T09:04:59;8.40;;;3.90;;
67352;SDS011;54238;52.278;21.056;2023-04-29T09:07:35;7.10;;;3.60;;
67352;SDS011;54238;52.278;21.056;2023-04-29T09:10:11;5.70;;;3.80;;
67352;SDS011;54238;52.278;21.056;2023-04-29T09:12:42;10.70;;;4.20;;
67352;SDS011;54238;52.278;21.056;2023-04-29T09:15:17;9.30;;;4.30;;
67352;SDS011;54238;52.278;21.056;2023-04-29T09:17:48;9.10;;;4.00;;
67352;SDS011;54238;52.278;21.056;2023-04-29T09:22:51;10.90;;;4.70;;
67352;SDS011;54238;52.278;21.056;2023-04-29T09:25:38;9.10;;;4.30;;
67352;SDS011;54238;52.278;21.056;2023-04-29T09:28:17;9.10;;;4.60;;
67352;SDS011;54238;52.278;21.056;2023-04-29T09:30:46;7.70;;;3.80;;
67352;SDS011;54238;52.278;21.056;2023-04-29T09:33:21;9.70;;;4.70;;
67352;SDS011;54238;52.278;21.056;2023-04-29T09:35:48;6.10;;;3.80;;
67352;SDS011;54238;52.278;21.056;2023-04-29T09:38:15;9.20;;;4.00;;
67352;SDS011;54238;52.278;21.056;2023-04-29T09:40:43;8.10;;;3.80;;
67352;SDS011;54238;52.278;21.056;2023-04-29T09:43:15;8.30;;;4.40;;
67352;SDS011;54238;52.278;21.056;2023-04-29T09:45:49;12.60;;;4.20;;
67352;SDS011;54238;52.278;21.056;2023-04-29T09:48:18;7.60;;;3.60;;
67352;SDS011;54238;52.278;21.056;2023-04-29T09:50:59;9.20;;;4.30;;
67352;SDS011;54238;52.278;21.056;2023-04-29T09:53:32;9.70;;;4.30;;
67352;SDS011;54238;52.278;21.056;2023-04-29T09:56:04;6.50;;;3.60;;
67352;SDS011;54238;52.278;21.056;2023-04-29T09:58:35;8.50;;;4.20;;
67352;SDS011;54238;52.278;21.056;2023-04-29T10:01:06;9.60;;;4.20;;
67352;SDS011;54238;52.278;21.056;2023-04-29T10:03:36;6.70;;;3.30;;
67352;SDS011;54238;52.278;21.056;2023-04-29T10:06:08;13.50;;;4.40;;
67352;SDS011;54238;52.278;21.056;2023-04-29T10:08:37;10.70;;;3.90;;
67352;SDS011;54238;52.278;21.056;2023-04-29T10:11:11;7.80;;;3.70;;
67352;SDS011;54238;52.278;21.056;2023-04-29T10:13:41;7.40;;;3.90;;
67352;SDS011;54238;52.278;21.056;2023-04-29T10:16:33;7.60;;;4.00;;
67352;SDS011;54238;52.278;21.056;2023-04-29T10:19:10;8.60;;;4.00;;
67352;SDS011;54238;52.278;21.056;2023-04-29T10:21:45;10.60;;;4.60;;
67352;SDS011;54238;52.278;21.056;2023-04-29T10:24:17;6.70;;;3.50;;
67352;SDS011;54238;52.278;21.056;2023-04-29T10:26:50;5.20;;;3.60;;
67352;SDS011;54238;52.278;21.056;2023-04-29T10:29:18;16.20;;;4.60;;
67352;SDS011;54238;52.278;21.056;2023-04-29T10:31:50;9.70;;;4.50;;
67352;SDS011;54238;52.278;21.056;2023-04-29T10:34:19;9.10;;;4.60;;
67352;SDS011;54238;52.278;21.056;2023-04-29T10:36:50;10.60;;;3.90;;
67352;SDS011;54238;52.278;21.056;2023-04-29T10:39:31;7.90;;;3.60;;
67352;SDS011;54238;52.278;21.056;2023-04-29T10:42:33;8.30;;;3.70;;
67352;SDS011;54238;52.278;21.056;2023-04-29T10:50:34;10.60;;;4.20;;
67352;SDS011;54238;52.278;21.056;2023-04-29T10:53:02;10.20;;;4.00;;
67352;SDS011;54238;52.278;21.056;2023-04-29T10:55:36;9.90;;;3.20;;
67352;SDS011;54238;52.278;21.056;2023-04-29T10:58:05;7.40;;;3.50;;
67352;SDS011;54238;52.278;21.056;2023-04-29T11:00:54;5.50;;;3.80;;
67352;SDS011;54238;52.278;21.056;2023-04-29T11:09:07;9.90;;;3.40;;
67352;SDS011;54238;52.278;21.056;2023-04-29T11:11:56;6.50;;;3.70;;
67352;SDS011;54238;52.278;21.056;2023-04-29T11:27:34;6.90;;;3.60;;
67352;SDS011;54238;52.278;21.056;2023-04-29T11:30:06;17.30;;;3.60;;
67352;SDS011;54238;52.278;21.056;2023-04-29T11:32:40;7.90;;;3.40;;
67352;SDS011;54238;52.278;21.056;2023-04-29T11:35:12;5.20;;;3.00;;
67352;SDS011;54238;52.278;21.056;2023-04-29T11:37:45;7.40;;;3.50;;
67352;SDS011;54238;52.278;21.056;2023-04-29T11:40:15;6.20;;;3.40;;
67352;SDS011;54238;52.278;21.056;2023-04-29T11:42:46;6.20;;;3.60;;
67352;SDS011;54238;52.278;21.056;2023-04-29T11:45:18;7.20;;;3.10;;
67352;SDS011;54238;52.278;21.056;2023-04-29T11:47:50;5.10;;;3.20;;
67352;SDS011;54238;52.278;21.056;2023-04-29T11:50:22;8.70;;;3.00;;
67352;SDS011;54238;52.278;21.056;2023-04-29T11:52:49;6.90;;;3.10;;
67352;SDS011;54238;52.278;21.056;2023-04-29T11:55:23;4.90;;;3.20;;
67352;SDS011;54238;52.278;21.056;2023-04-29T11:57:52;5.60;;;3.30;;
67352;SDS011;54238;52.278;21.056;2023-04-29T12:00:25;7.10;;;3.30;;
67352;SDS011;54238;52.278;21.056;2023-04-29T12:02:57;6.30;;;3.00;;
67352;SDS011;54238;52.278;21.056;2023-04-29T12:07:58;14.40;;;3.80;;
67352;SDS011;54238;52.278;21.056;2023-04-29T12:10:26;5.70;;;3.70;;
67352;SDS011;54238;52.278;21.056;2023-04-29T12:12:56;7.20;;;3.40;;
67352;SDS011;54238;52.278;21.056;2023-04-29T12:15:27;7.10;;;3.50;;
67352;SDS011;54238;52.278;21.056;2023-04-29T12:17:58;9.50;;;3.20;;
67352;SDS011;54238;52.278;21.056;2023-04-29T12:23:11;6.00;;;3.10;;
67352;SDS011;54238;52.278;21.056;2023-04-29T12:25:47;9.70;;;3.20;;
67352;SDS011;54238;52.278;21.056;2023-04-29T12:28:18;7.30;;;3.00;;
67352;SDS011;54238;52.278;21.056;2023-04-29T12:30:50;7.60;;;3.50;;
67352;SDS011;54238;52.278;21.056;2023-04-29T12:33:24;7.40;;;3.70;;
67352;SDS011;54238;52.278;21.056;2023-04-29T12:35:57;8.00;;;3.70;;
67352;SDS011;54238;52.278;21.056;2023-04-29T12:38:30;12.30;;;3.30;;
67352;SDS011;54238;52.278;21.056;2023-04-29T12:41:07;7.90;;;3.30;;
67352;SDS011;54238;52.278;21.056;2023-04-29T12:43:40;9.10;;;3.30;;
67352;SDS011;54238;52.278;21.056;2023-04-29T12:46:10;6.20;;;3.80;;
67352;SDS011;54238;52.278;21.056;2023-04-29T12:48:44;8.30;;;3.40;;
67352;SDS011;54238;52.278;21.056;2023-04-29T12:51:13;5.40;;;3.00;;
67352;SDS011;54238;52.278;21.056;2023-04-29T12:53:42;7.60;;;3.40;;
67352;SDS011;54238;52.278;21.056;2023-04-29T12:56:10;8.30;;;3.70;;
67352;SDS011;54238;52.278;21.056;2023-04-29T12:58:38;8.40;;;3.30;;
67352;SDS011;54238;52.278;21.056;2023-04-29T13:01:09;5.90;;;3.70;;
67352;SDS011;54238;52.278;21.056;2023-04-29T13:03:40;4.60;;;3.60;;
67352;SDS011;54238;52.278;21.056;2023-04-29T13:06:09;9.40;;;3.50;;
67352;SDS011;54238;52.278;21.056;2023-04-29T13:08:39;6.00;;;3.90;;
67352;SDS011;54238;52.278;21.056;2023-04-29T13:11:08;7.20;;;3.60;;
67352;SDS011;54238;52.278;21.056;2023-04-29T13:13:39;4.40;;;3.10;;
67352;SDS011;54238;52.278;21.056;2023-04-29T13:16:08;7.80;;;3.30;;
67352;SDS011;54238;52.278;21.056;2023-04-29T13:18:37;5.20;;;3.50;;
67352;SDS011;54238;52.278;21.056;2023-04-29T13:21:07;6.70;;;3.70;;
67352;SDS011;54238;52.278;21.056;2023-04-29T13:23:39;10.20;;;3.50;;
67352;SDS011;54238;52.278;21.056;2023-04-29T13:26:09;11.50;;;3.60;;
67352;SDS011;54238;52.278;21.056;2023-04-29T13:31:34;6.90;;;3.40;;
67352;SDS011;54238;52.278;21.056;2023-04-29T13:34:01;7.90;;;3.30;;
67352;SDS011;54238;52.278;21.056;2023-04-29T13:36:30;5.50;;;4.00;;
67352;SDS011;54238;52.278;21.056;2023-04-29T13:38:59;6.90;;;3.40;;
67352;SDS011;54238;52.278;21.056;2023-04-29T13:41:27;7.20;;;3.80;;
67352;SDS011;54238;52.278;21.056;2023-04-29T13:43:55;7.80;;;3.40;;
67352;SDS011;54238;52.278;21.056;2023-04-29T13:46:27;6.20;;;3.70;;
67352;SDS011;54238;52.278;21.056;2023-04-29T13:48:54;6.60;;;3.80;;
67352;SDS011;54238;52.278;21.056;2023-04-29T13:51:23;12.50;;;3.40;;
67352;SDS011;54238;52.278;21.056;2023-04-29T13:53:54;8.80;;;3.70;;
67352;SDS011;54238;52.278;21.056;2023-04-29T13:56:21;5.80;;;3.50;;
67352;SDS011;54238;52.278;21.056;2023-04-29T13:58:58;8.80;;;3.80;;
67352;SDS011;54238;52.278;21.056;2023-04-29T14:01:25;8.90;;;4.40;;
67352;SDS011;54238;52.278;21.056;2023-04-29T14:03:53;8.80;;;3.40;;
67352;SDS011;54238;52.278;21.056;2023-04-29T14:06:22;9.00;;;4.00;;
67352;SDS011;54238;52.278;21.056;2023-04-29T14:08:54;7.70;;;3.90;;
67352;SDS011;54238;52.278;21.056;2023-04-29T14:11:23;9.10;;;4.10;;
67352;SDS011;54238;52.278;21.056;2023-04-29T14:13:53;5.90;;;3.70;;
67352;SDS011;54238;52.278;21.056;2023-04-29T14:16:22;7.80;;;3.60;;
67352;SDS011;54238;52.278;21.056;2023-04-29T14:18:52;11.30;;;4.40;;
67352;SDS011;54238;52.278;21.056;2023-04-29T14:21:18;6.70;;;3.40;;
67352;SDS011;54238;52.278;21.056;2023-04-29T14:23:49;6.40;;;3.90;;
67352;SDS011;54238;52.278;21.056;2023-04-29T14:26:19;8.00;;;3.80;;
67352;SDS011;54238;52.278;21.056;2023-04-29T14:28:46;6.90;;;3.70;;
67352;SDS011;54238;52.278;21.056;2023-04-29T14:31:32;6.90;;;3.50;;
67352;SDS011;54238;52.278;21.056;2023-04-29T14:34:07;11.70;;;4.20;;
67352;SDS011;54238;52.278;21.056;2023-04-29T14:36:35;7.10;;;4.30;;
67352;SDS011;54238;52.278;21.056;2023-04-29T14:39:07;9.10;;;4.30;;
67352;SDS011;54238;52.278;21.056;2023-04-29T14:41:36;11.30;;;4.00;;
67352;SDS011;54238;52.278;21.056;2023-04-29T14:44:08;5.70;;;3.00;;
67352;SDS011;54238;52.278;21.056;2023-04-29T14:46:35;6.60;;;4.00;;
67352;SDS011;54238;52.278;21.056;2023-04-29T14:49:04;7.80;;;4.00;;
67352;SDS011;54238;52.278;21.056;2023-04-29T14:51:36;8.90;;;3.90;;
67352;SDS011;54238;52.278;21.056;2023-04-29T14:54:06;9.40;;;4.20;;
67352;SDS011;54238;52.278;21.056;2023-04-29T14:56:39;10.20;;;4.10;;
67352;SDS011;54238;52.278;21.056;2023-04-29T14:59:06;7.20;;;4.00;;
67352;SDS011;54238;52.278;21.056;2023-04-29T15:01:34;11.50;;;4.50;;
67352;SDS011;54238;52.278;21.056;2023-04-29T15:04:07;8.00;;;3.80;;
67352;SDS011;54238;52.278;21.056;2023-04-29T15:06:35;7.40;;;4.10;;
67352;SDS011;54238;52.278;21.056;2023-04-29T15:09:05;8.30;;;4.30;;
67352;SDS011;54238;52.278;21.056;2023-04-29T15:11:32;6.40;;;3.80;;
67352;SDS011;54238;52.278;21.056;2023-04-29T15:14:02;9.20;;;3.90;;
67352;SDS011;54238;52.278;21.056;2023-04-29T15:16:29;8.20;;;4.10;;
67352;SDS011;54238;52.278;21.056;2023-04-29T15:18:58;7.00;;;3.80;;
67352;SDS011;54238;52.278;21.056;2023-04-29T15:21:28;8.50;;;3.60;;
67352;SDS011;54238;52.278;21.056;2023-04-29T15:23:57;9.10;;;3.60;;
67352;SDS011;54238;52.278;21.056;2023-04-29T15:26:27;4.60;;;3.50;;
67352;SDS011;54238;52.278;21.056;2023-04-29T15:28:56;7.00;;;3.80;;
67352;SDS011;54238;52.278;21.056;2023-04-29T15:31:26;6.40;;;3.90;;
67352;SDS011;54238;52.278;21.056;2023-04-29T15:33:58;5.10;;;3.00;;
67352;SDS011;54238;52.278;21.056;2023-04-29T15:36:30;9.00;;;4.10;;
67352;SDS011;54238;52.278;21.056;2023-04-29T15:39:01;9.30;;;3.90;;
67352;SDS011;54238;52.278;21.056;2023-04-29T15:41:30;9.10;;;3.90;;
67352;SDS011;54238;52.278;21.056;2023-04-29T15:43:57;7.00;;;3.60;;
67352;SDS011;54238;52.278;21.056;2023-04-29T15:46:24;7.00;;;3.90;;
67352;SDS011;54238;52.278;21.056;2023-04-29T15:48:54;7.60;;;3.80;;
67352;SDS011;54238;52.278;21.056;2023-04-29T15:51:23;6.90;;;4.10;;